Cocos Island Airport, Cocos Islands

5:51 AM +0630 on November 18, 2017 (GMT +0630)
Cocos (Keeling) Island International | | Change Station

Elev 10 ft 12.18 °S, 96.82 °E | Updated 21 minutes ago

Overcast
Overcast
79 °F
Feels Like 79 °F
N
10
Wind Variable Wind from SE

Today
High -- | Low -- °F
--% Chance of Precip.
Yesterday
High -- | Low -- °F
Precip. -- in
Pressure 29.83 in
Visibility 6.2 miles
Clouds Scattered Clouds 4400 ft
Overcast 5700 ft
Dew Point 68 °F
Humidity 69%
Rainfall 0.00 in
Snow Depth Not available.
5:26 AM 6:08 PM
Waning Crescent, 0% visible
METAR YPCC 172300Z AUTO 14009KT 9999 // SCT044 OVC057 26/20 Q1010
Pressure 29.83 in
Visibility 6.2 miles
Clouds Scattered Clouds 4400 ft
Overcast 5700 ft
Dew Point 68 °F
Humidity 69%
Rainfall 0.00 in
Snow Depth Not available.
5:26 AM 6:08 PM
Waning Crescent, 0% visible
METAR YPCC 172300Z AUTO 14009KT 9999 // SCT044 OVC057 26/20 Q1010

Get Severe Weather Alerts

Thanks for signing up!

Be on the lookout for a verification email in your inbox.

You'll start receiving the daily forecast at 6 AM.

×

10-Day Weather Forecast

No radar image for this location.
×

Almanac

Astronomy

Nov. 18, 2017 Rise Set
Actual Time
Civil Twilight
Nautical Twilight
Astronomical Twilight
Moon
Length of Visible Light
Length of Day
Tomorrow will be .
, % of the Moon is Illuminated

Today's Extremes

Country Highs Country Lows

Community

WunderPhotos

Category 6

Welcome to Category 6. This is the collective home for Weather Underground's featured writeups by Dr. Jeff Masters (right), Bob Henson (left), Chris Burt, and other regular contributors.

Nearby

Air Quality

  Air Quality AQ Index Pollutant
Not available.

Snow Depth

Station Depth Elevation

Earthquake Activity

City Distance Mag. Time & Date
Minimum magnitude displayed is 2.5.

Coastal Water Temperatures

Place Temperature

Stations

Nearby Weather Stations

Station Location Temp. Windchill Dew Point Humidity Wind Precip. Elev Updated Type